sensor_id;sensor_type;location;lat;lon;timestamp;temperature;humidity
16263;DHT22;8239;48.594;8.598;2023-03-14T00:01:35;7.70;99.90
16263;DHT22;8239;48.594;8.598;2023-03-14T00:04:05;7.70;99.90
16263;DHT22;8239;48.594;8.598;2023-03-14T00:06:32;7.70;99.90
16263;DHT22;8239;48.594;8.598;2023-03-14T00:09:03;7.80;99.90
16263;DHT22;8239;48.594;8.598;2023-03-14T00:11:30;7.70;99.90
16263;DHT22;8239;48.594;8.598;2023-03-14T00:13:57;7.80;99.90
16263;DHT22;8239;48.594;8.598;2023-03-14T00:16:25;7.70;99.90
16263;DHT22;8239;48.594;8.598;2023-03-14T00:18:52;7.70;99.90
16263;DHT22;8239;48.594;8.598;2023-03-14T00:21:20;7.70;99.90
16263;DHT22;8239;48.594;8.598;2023-03-14T00:23:47;7.70;99.90
16263;DHT22;8239;48.594;8.598;2023-03-14T00:26:18;7.70;99.90
16263;DHT22;8239;48.594;8.598;2023-03-14T00:28:45;7.70;99.90
16263;DHT22;8239;48.594;8.598;2023-03-14T00:31:15;7.70;99.90
16263;DHT22;8239;48.594;8.598;2023-03-14T00:33:42;7.70;99.90
16263;DHT22;8239;48.594;8.598;2023-03-14T00:36:12;7.70;99.90
16263;DHT22;8239;48.594;8.598;2023-03-14T00:38:42;7.80;99.90
16263;DHT22;8239;48.594;8.598;2023-03-14T00:41:11;7.80;99.90
16263;DHT22;8239;48.594;8.598;2023-03-14T00:43:39;7.80;99.90
16263;DHT22;8239;48.594;8.598;2023-03-14T00:46:07;7.80;99.90
16263;DHT22;8239;48.594;8.598;2023-03-14T00:48:35;7.80;99.90
16263;DHT22;8239;48.594;8.598;2023-03-14T00:51:03;7.80;99.90
16263;DHT22;8239;48.594;8.598;2023-03-14T00:53:30;7.80;99.90
16263;DHT22;8239;48.594;8.598;2023-03-14T00:56:02;7.80;99.90
16263;DHT22;8239;48.594;8.598;2023-03-14T00:58:30;7.80;99.90
16263;DHT22;8239;48.594;8.598;2023-03-14T01:00:57;7.80;99.90
16263;DHT22;8239;48.594;8.598;2023-03-14T01:03:24;7.80;99.90
16263;DHT22;8239;48.594;8.598;2023-03-14T01:05:51;7.80;99.90
16263;DHT22;8239;48.594;8.598;2023-03-14T01:08:18;7.80;99.90
16263;DHT22;8239;48.594;8.598;2023-03-14T01:10:45;7.80;99.90
16263;DHT22;8239;48.594;8.598;2023-03-14T01:13:13;7.80;99.90
16263;DHT22;8239;48.594;8.598;2023-03-14T01:15:40;7.80;99.90
16263;DHT22;8239;48.594;8.598;2023-03-14T01:18:07;7.80;99.90
16263;DHT22;8239;48.594;8.598;2023-03-14T01:20:36;7.80;99.90
16263;DHT22;8239;48.594;8.598;2023-03-14T01:23:03;7.80;99.90
16263;DHT22;8239;48.594;8.598;2023-03-14T01:25:30;7.70;99.90
16263;DHT22;8239;48.594;8.598;2023-03-14T01:27:57;7.70;99.90
16263;DHT22;8239;48.594;8.598;2023-03-14T01:30:27;7.70;99.90
16263;DHT22;8239;48.594;8.598;2023-03-14T01:32:54;7.70;99.90
16263;DHT22;8239;48.594;8.598;2023-03-14T01:35:21;7.70;99.90
16263;DHT22;8239;48.594;8.598;2023-03-14T01:37:48;7.60;99.90
16263;DHT22;8239;48.594;8.598;2023-03-14T01:40:15;7.60;99.90
16263;DHT22;8239;48.594;8.598;2023-03-14T01:42:45;7.60;99.90
16263;DHT22;8239;48.594;8.598;2023-03-14T01:48:20;7.60;99.90
16263;DHT22;8239;48.594;8.598;2023-03-14T01:50:47;7.50;99.90
16263;DHT22;8239;48.594;8.598;2023-03-14T01:53:15;7.50;99.90
16263;DHT22;8239;48.594;8.598;2023-03-14T01:55:42;7.50;99.90
16263;DHT22;8239;48.594;8.598;2023-03-14T01:58:09;7.50;99.90
16263;DHT22;8239;48.594;8.598;2023-03-14T02:00:36;7.50;99.90
16263;DHT22;8239;48.594;8.598;2023-03-14T02:03:08;7.50;99.90
16263;DHT22;8239;48.594;8.598;2023-03-14T02:05:39;7.40;99.90
16263;DHT22;8239;48.594;8.598;2023-03-14T02:08:09;7.40;99.90
16263;DHT22;8239;48.594;8.598;2023-03-14T02:10:40;7.40;99.90
16263;DHT22;8239;48.594;8.598;2023-03-14T02:13:08;7.40;99.90
16263;DHT22;8239;48.594;8.598;2023-03-14T02:15:35;7.40;99.90
16263;DHT22;8239;48.594;8.598;2023-03-14T02:18:04;7.40;99.90
16263;DHT22;8239;48.594;8.598;2023-03-14T02:20:34;7.40;99.90
16263;DHT22;8239;48.594;8.598;2023-03-14T02:23:03;7.40;99.90
16263;DHT22;8239;48.594;8.598;2023-03-14T02:25:38;7.40;99.90
16263;DHT22;8239;48.594;8.598;2023-03-14T02:28:08;7.40;99.90
16263;DHT22;8239;48.594;8.598;2023-03-14T02:30:36;7.30;99.90
16263;DHT22;8239;48.594;8.598;2023-03-14T02:33:05;7.30;99.90
16263;DHT22;8239;48.594;8.598;2023-03-14T02:35:43;7.30;99.90
16263;DHT22;8239;48.594;8.598;2023-03-14T02:38:15;7.20;99.90
16263;DHT22;8239;48.594;8.598;2023-03-14T02:40:43;7.20;99.90
16263;DHT22;8239;48.594;8.598;2023-03-14T02:43:12;7.10;99.90
16263;DHT22;8239;48.594;8.598;2023-03-14T02:45:41;7.10;99.90
16263;DHT22;8239;48.594;8.598;2023-03-14T02:48:13;7.10;99.90
16263;DHT22;8239;48.594;8.598;2023-03-14T02:50:41;7.10;99.90
16263;DHT22;8239;48.594;8.598;2023-03-14T02:53:08;7.10;99.90
16263;DHT22;8239;48.594;8.598;2023-03-14T02:55:35;7.00;99.90
16263;DHT22;8239;48.594;8.598;2023-03-14T02:58:02;7.00;99.90
16263;DHT22;8239;48.594;8.598;2023-03-14T03:00:30;7.00;99.90
16263;DHT22;8239;48.594;8.598;2023-03-14T03:02:58;7.00;99.90
16263;DHT22;8239;48.594;8.598;2023-03-14T03:05:26;7.00;99.90
16263;DHT22;8239;48.594;8.598;2023-03-14T03:07:53;7.00;99.90
16263;DHT22;8239;48.594;8.598;2023-03-14T03:10:20;6.90;99.90
16263;DHT22;8239;48.594;8.598;2023-03-14T03:12:47;6.90;99.90
16263;DHT22;8239;48.594;8.598;2023-03-14T03:15:14;6.90;99.90
16263;DHT22;8239;48.594;8.598;2023-03-14T03:17:42;6.90;99.90
16263;DHT22;8239;48.594;8.598;2023-03-14T03:20:10;6.80;99.90
16263;DHT22;8239;48.594;8.598;2023-03-14T03:22:37;6.80;99.90
16263;DHT22;8239;48.594;8.598;2023-03-14T03:25:06;6.80;99.90
16263;DHT22;8239;48.594;8.598;2023-03-14T03:27:35;6.80;99.90
16263;DHT22;8239;48.594;8.598;2023-03-14T03:30:05;6.80;99.90
16263;DHT22;8239;48.594;8.598;2023-03-14T03:32:32;6.70;99.90
16263;DHT22;8239;48.594;8.598;2023-03-14T03:35:01;6.70;99.90
16263;DHT22;8239;48.594;8.598;2023-03-14T03:37:30;6.70;99.90
16263;DHT22;8239;48.594;8.598;2023-03-14T03:39:57;6.70;99.90
16263;DHT22;8239;48.594;8.598;2023-03-14T03:42:24;6.70;99.90
16263;DHT22;8239;48.594;8.598;2023-03-14T03:44:52;6.80;99.90
16263;DHT22;8239;48.594;8.598;2023-03-14T03:47:19;6.70;99.90
16263;DHT22;8239;48.594;8.598;2023-03-14T03:49:46;6.70;99.90
16263;DHT22;8239;48.594;8.598;2023-03-14T03:52:14;6.70;99.90
16263;DHT22;8239;48.594;8.598;2023-03-14T03:54:42;6.70;99.90
16263;DHT22;8239;48.594;8.598;2023-03-14T03:57:08;6.70;99.90
16263;DHT22;8239;48.594;8.598;2023-03-14T03:59:35;6.70;99.90
16263;DHT22;8239;48.594;8.598;2023-03-14T04:02:04;6.70;99.90
16263;DHT22;8239;48.594;8.598;2023-03-14T04:04:31;6.70;99.90
16263;DHT22;8239;48.594;8.598;2023-03-14T04:06:58;6.70;99.90
16263;DHT22;8239;48.594;8.598;2023-03-14T04:09:26;6.80;99.90
16263;DHT22;8239;48.594;8.598;2023-03-14T04:11:53;6.70;99.90
16263;DHT22;8239;48.594;8.598;2023-03-14T04:14:20;6.70;99.90
16263;DHT22;8239;48.594;8.598;2023-03-14T04:16:47;6.70;99.90
16263;DHT22;8239;48.594;8.598;2023-03-14T04:19:14;6.70;99.90
16263;DHT22;8239;48.594;8.598;2023-03-14T04:21:41;6.70;99.90
16263;DHT22;8239;48.594;8.598;2023-03-14T04:24:10;6.70;99.90
16263;DHT22;8239;48.594;8.598;2023-03-14T04:26:39;6.70;99.90
16263;DHT22;8239;48.594;8.598;2023-03-14T04:29:05;6.70;99.90
16263;DHT22;8239;48.594;8.598;2023-03-14T04:31:32;6.70;99.90
16263;DHT22;8239;48.594;8.598;2023-03-14T04:33:59;6.70;99.90
16263;DHT22;8239;48.594;8.598;2023-03-14T04:36:26;6.70;99.90
16263;DHT22;8239;48.594;8.598;2023-03-14T04:38:53;6.70;99.90
16263;DHT22;8239;48.594;8.598;2023-03-14T04:41:20;6.60;99.90
16263;DHT22;8239;48.594;8.598;2023-03-14T04:43:48;6.60;99.90
16263;DHT22;8239;48.594;8.598;2023-03-14T04:46:15;6.60;99.90
16263;DHT22;8239;48.594;8.598;2023-03-14T04:48:42;6.60;99.90
16263;DHT22;8239;48.594;8.598;2023-03-14T04:51:09;6.60;99.90
16263;DHT22;8239;48.594;8.598;2023-03-14T04:53:36;6.70;99.90
16263;DHT22;8239;48.594;8.598;2023-03-14T04:56:04;6.70;99.90
16263;DHT22;8239;48.594;8.598;2023-03-14T04:58:31;6.70;99.90
16263;DHT22;8239;48.594;8.598;2023-03-14T05:01:03;6.80;99.90
16263;DHT22;8239;48.594;8.598;2023-03-14T05:03:30;6.80;99.90
16263;DHT22;8239;48.594;8.598;2023-03-14T05:05:57;6.80;99.90
16263;DHT22;8239;48.594;8.598;2023-03-14T05:08:26;6.80;99.90
16263;DHT22;8239;48.594;8.598;2023-03-14T05:10:53;6.80;99.90
16263;DHT22;8239;48.594;8.598;2023-03-14T05:13:20;6.90;99.90
16263;DHT22;8239;48.594;8.598;2023-03-14T05:15:47;6.90;99.90
16263;DHT22;8239;48.594;8.598;2023-03-14T05:18:17;6.90;99.90
16263;DHT22;8239;48.594;8.598;2023-03-14T05:20:44;7.00;99.90
16263;DHT22;8239;48.594;8.598;2023-03-14T05:23:11;7.00;99.90
16263;DHT22;8239;48.594;8.598;2023-03-14T05:25:38;7.00;99.90
16263;DHT22;8239;48.594;8.598;2023-03-14T05:28:05;7.10;99.90
16263;DHT22;8239;48.594;8.598;2023-03-14T05:30:32;7.00;99.90
16263;DHT22;8239;48.594;8.598;2023-03-14T05:32:59;7.10;99.90
16263;DHT22;8239;48.594;8.598;2023-03-14T05:35:27;7.00;99.90
16263;DHT22;8239;48.594;8.598;2023-03-14T05:37:54;6.90;99.90
16263;DHT22;8239;48.594;8.598;2023-03-14T05:40:21;6.90;99.90
16263;DHT22;8239;48.594;8.598;2023-03-14T05:42:48;6.90;99.90
16263;DHT22;8239;48.594;8.598;2023-03-14T05:45:15;6.90;99.90
16263;DHT22;8239;48.594;8.598;2023-03-14T05:47:42;6.80;99.90
16263;DHT22;8239;48.594;8.598;2023-03-14T05:50:10;6.90;99.90
16263;DHT22;8239;48.594;8.598;2023-03-14T05:52:38;6.80;99.90
16263;DHT22;8239;48.594;8.598;2023-03-14T05:55:06;6.80;99.90
16263;DHT22;8239;48.594;8.598;2023-03-14T05:57:33;6.80;99.90
16263;DHT22;8239;48.594;8.598;2023-03-14T06:00:00;6.80;99.90
16263;DHT22;8239;48.594;8.598;2023-03-14T06:02:27;6.80;99.90
16263;DHT22;8239;48.594;8.598;2023-03-14T06:04:54;6.80;99.90
16263;DHT22;8239;48.594;8.598;2023-03-14T06:07:20;6.90;99.90
16263;DHT22;8239;48.594;8.598;2023-03-14T06:09:49;6.90;99.90
16263;DHT22;8239;48.594;8.598;2023-03-14T06:12:16;6.90;99.90
16263;DHT22;8239;48.594;8.598;2023-03-14T06:14:43;7.00;99.90
16263;DHT22;8239;48.594;8.598;2023-03-14T06:17:10;7.00;99.90
16263;DHT22;8239;48.594;8.598;2023-03-14T06:19:37;7.10;99.90
16263;DHT22;8239;48.594;8.598;2023-03-14T06:22:04;7.10;99.90
16263;DHT22;8239;48.594;8.598;2023-03-14T06:24:31;7.10;99.90
16263;DHT22;8239;48.594;8.598;2023-03-14T06:26:59;7.10;99.90
16263;DHT22;8239;48.594;8.598;2023-03-14T06:29:28;7.10;99.90
16263;DHT22;8239;48.594;8.598;2023-03-14T06:31:55;7.20;99.90
16263;DHT22;8239;48.594;8.598;2023-03-14T06:34:21;7.50;99.90
16263;DHT22;8239;48.594;8.598;2023-03-14T06:36:49;8.00;99.90
16263;DHT22;8239;48.594;8.598;2023-03-14T06:39:15;8.60;99.90
16263;DHT22;8239;48.594;8.598;2023-03-14T06:41:42;9.10;99.90
16263;DHT22;8239;48.594;8.598;2023-03-14T06:44:11;9.40;99.90
16263;DHT22;8239;48.594;8.598;2023-03-14T06:46:38;10.00;99.90
16263;DHT22;8239;48.594;8.598;2023-03-14T06:49:05;10.70;99.90
16263;DHT22;8239;48.594;8.598;2023-03-14T06:51:32;11.40;99.90
16263;DHT22;8239;48.594;8.598;2023-03-14T06:53:59;12.00;99.90
16263;DHT22;8239;48.594;8.598;2023-03-14T06:56:26;12.40;99.90
16263;DHT22;8239;48.594;8.598;2023-03-14T06:58:53;12.30;99.90
16263;DHT22;8239;48.594;8.598;2023-03-14T07:01:24;12.20;99.90
16263;DHT22;8239;48.594;8.598;2023-03-14T07:03:51;12.00;99.90
16263;DHT22;8239;48.594;8.598;2023-03-14T07:06:18;12.10;99.90
16263;DHT22;8239;48.594;8.598;2023-03-14T07:08:46;12.40;99.90
16263;DHT22;8239;48.594;8.598;2023-03-14T07:11:13;12.70;99.90
16263;DHT22;8239;48.594;8.598;2023-03-14T07:13:40;13.20;99.90
16263;DHT22;8239;48.594;8.598;2023-03-14T07:16:08;13.50;99.90
16263;DHT22;8239;48.594;8.598;2023-03-14T07:18:36;13.90;99.90
16263;DHT22;8239;48.594;8.598;2023-03-14T07:21:04;14.10;99.90
16263;DHT22;8239;48.594;8.598;2023-03-14T07:23:31;14.30;99.90
16263;DHT22;8239;48.594;8.598;2023-03-14T07:25:58;14.60;99.90
16263;DHT22;8239;48.594;8.598;2023-03-14T07:28:25;15.10;99.90
16263;DHT22;8239;48.594;8.598;2023-03-14T07:30:53;15.80;99.90
16263;DHT22;8239;48.594;8.598;2023-03-14T07:33:20;16.60;99.90
16263;DHT22;8239;48.594;8.598;2023-03-14T07:35:49;17.10;94.50
16263;DHT22;8239;48.594;8.598;2023-03-14T07:38:16;17.10;95.20
16263;DHT22;8239;48.594;8.598;2023-03-14T07:40:43;16.40;91.20
16263;DHT22;8239;48.594;8.598;2023-03-14T07:43:10;15.40;90.30
16263;DHT22;8239;48.594;8.598;2023-03-14T07:45:37;14.60;93.30
16263;DHT22;8239;48.594;8.598;2023-03-14T07:48:05;13.80;94.90
16263;DHT22;8239;48.594;8.598;2023-03-14T07:50:31;13.10;98.80
16263;DHT22;8239;48.594;8.598;2023-03-14T07:53:00;12.40;98.50
16263;DHT22;8239;48.594;8.598;2023-03-14T07:55:27;11.70;99.90
16263;DHT22;8239;48.594;8.598;2023-03-14T07:57:54;11.20;99.90
16263;DHT22;8239;48.594;8.598;2023-03-14T08:00:21;10.70;99.90
16263;DHT22;8239;48.594;8.598;2023-03-14T08:02:48;10.30;99.90
16263;DHT22;8239;48.594;8.598;2023-03-14T08:05:15;10.00;99.90
16263;DHT22;8239;48.594;8.598;2023-03-14T08:07:42;9.70;99.90
16263;DHT22;8239;48.594;8.598;2023-03-14T08:10:11;9.50;99.90
16263;DHT22;8239;48.594;8.598;2023-03-14T08:12:41;9.40;99.90
16263;DHT22;8239;48.594;8.598;2023-03-14T08:15:09;9.20;99.90
16263;DHT22;8239;48.594;8.598;2023-03-14T08:17:36;9.10;99.90
16263;DHT22;8239;48.594;8.598;2023-03-14T08:20:04;9.00;99.90
16263;DHT22;8239;48.594;8.598;2023-03-14T08:22:34;8.90;99.90
16263;DHT22;8239;48.594;8.598;2023-03-14T08:25:01;8.80;99.90
16263;DHT22;8239;48.594;8.598;2023-03-14T08:27:30;8.80;99.90
16263;DHT22;8239;48.594;8.598;2023-03-14T08:29:57;8.80;99.90
16263;DHT22;8239;48.594;8.598;2023-03-14T08:32:24;8.80;99.90
16263;DHT22;8239;48.594;8.598;2023-03-14T08:34:51;8.80;99.90
16263;DHT22;8239;48.594;8.598;2023-03-14T08:37:18;8.80;99.90
16263;DHT22;8239;48.594;8.598;2023-03-14T08:39:45;8.80;99.90
16263;DHT22;8239;48.594;8.598;2023-03-14T08:42:13;8.90;99.90
16263;DHT22;8239;48.594;8.598;2023-03-14T08:44:41;8.90;99.90
16263;DHT22;8239;48.594;8.598;2023-03-14T08:47:09;9.00;99.90
16263;DHT22;8239;48.594;8.598;2023-03-14T08:49:36;9.00;99.90
16263;DHT22;8239;48.594;8.598;2023-03-14T08:52:03;9.10;99.90
16263;DHT22;8239;48.594;8.598;2023-03-14T08:54:30;9.20;99.90
16263;DHT22;8239;48.594;8.598;2023-03-14T08:56:58;9.40;99.90
16263;DHT22;8239;48.594;8.598;2023-03-14T08:59:25;9.50;99.90
16263;DHT22;8239;48.594;8.598;2023-03-14T09:01:53;9.50;99.90
16263;DHT22;8239;48.594;8.598;2023-03-14T09:04:21;9.40;99.90
16263;DHT22;8239;48.594;8.598;2023-03-14T09:06:48;9.30;99.90
16263;DHT22;8239;48.594;8.598;2023-03-14T09:09:15;9.20;99.90
16263;DHT22;8239;48.594;8.598;2023-03-14T09:11:42;9.10;99.90
16263;DHT22;8239;48.594;8.598;2023-03-14T09:14:09;9.10;99.90
16263;DHT22;8239;48.594;8.598;2023-03-14T09:16:36;9.00;99.90
16263;DHT22;8239;48.594;8.598;2023-03-14T09:19:04;9.00;99.90
16263;DHT22;8239;48.594;8.598;2023-03-14T09:21:31;9.10;99.90
16263;DHT22;8239;48.594;8.598;2023-03-14T09:23:58;9.10;99.90
16263;DHT22;8239;48.594;8.598;2023-03-14T09:26:25;9.10;99.90
16263;DHT22;8239;48.594;8.598;2023-03-14T09:28:52;9.00;99.90
16263;DHT22;8239;48.594;8.598;2023-03-14T09:31:19;9.00;99.90
16263;DHT22;8239;48.594;8.598;2023-03-14T09:33:46;9.00;99.90
16263;DHT22;8239;48.594;8.598;2023-03-14T09:36:15;9.00;99.90
16263;DHT22;8239;48.594;8.598;2023-03-14T09:38:42;9.20;99.90
16263;DHT22;8239;48.594;8.598;2023-03-14T09:41:14;9.30;99.90
16263;DHT22;8239;48.594;8.598;2023-03-14T09:43:43;9.40;99.90
16263;DHT22;8239;48.594;8.598;2023-03-14T09:46:12;9.50;99.90
16263;DHT22;8239;48.594;8.598;2023-03-14T09:48:40;9.60;99.90
16263;DHT22;8239;48.594;8.598;2023-03-14T09:51:13;9.60;99.90
16263;DHT22;8239;48.594;8.598;2023-03-14T09:53:43;9.60;99.90
16263;DHT22;8239;48.594;8.598;2023-03-14T09:56:14;9.50;99.90
16263;DHT22;8239;48.594;8.598;2023-03-14T09:58:45;9.60;99.90
16263;DHT22;8239;48.594;8.598;2023-03-14T10:01:16;9.60;99.90
16263;DHT22;8239;48.594;8.598;2023-03-14T10:03:45;9.60;99.90
16263;DHT22;8239;48.594;8.598;2023-03-14T10:06:16;9.50;99.90
16263;DHT22;8239;48.594;8.598;2023-03-14T10:08:45;9.50;99.90
16263;DHT22;8239;48.594;8.598;2023-03-14T10:11:14;9.50;99.90
16263;DHT22;8239;48.594;8.598;2023-03-14T10:13:53;9.60;99.90
16263;DHT22;8239;48.594;8.598;2023-03-14T10:16:30;9.80;99.90
16263;DHT22;8239;48.594;8.598;2023-03-14T10:19:02;10.00;99.90
16263;DHT22;8239;48.594;8.598;2023-03-14T10:21:30;10.10;99.90
16263;DHT22;8239;48.594;8.598;2023-03-14T10:24:16;10.20;99.90
16263;DHT22;8239;48.594;8.598;2023-03-14T10:26:48;10.40;99.90
16263;DHT22;8239;48.594;8.598;2023-03-14T10:29:15;10.40;99.90
16263;DHT22;8239;48.594;8.598;2023-03-14T10:31:51;10.40;99.90
16263;DHT22;8239;48.594;8.598;2023-03-14T10:34:23;10.30;99.90
16263;DHT22;8239;48.594;8.598;2023-03-14T10:36:56;10.30;99.90
16263;DHT22;8239;48.594;8.598;2023-03-14T10:39:33;10.20;99.90
16263;DHT22;8239;48.594;8.598;2023-03-14T10:42:06;10.10;99.90
16263;DHT22;8239;48.594;8.598;2023-03-14T10:44:39;10.10;99.90
16263;DHT22;8239;48.594;8.598;2023-03-14T10:47:12;10.00;99.90
16263;DHT22;8239;48.594;8.598;2023-03-14T10:49:41;10.10;99.90
16263;DHT22;8239;48.594;8.598;2023-03-14T10:52:15;10.20;99.90
16263;DHT22;8239;48.594;8.598;2023-03-14T10:54:47;10.40;99.90
16263;DHT22;8239;48.594;8.598;2023-03-14T10:57:14;10.50;99.90
16263;DHT22;8239;48.594;8.598;2023-03-14T10:59:42;10.40;99.90
16263;DHT22;8239;48.594;8.598;2023-03-14T11:02:26;10.30;99.90
16263;DHT22;8239;48.594;8.598;2023-03-14T11:05:03;10.00;99.90
16263;DHT22;8239;48.594;8.598;2023-03-14T11:07:35;9.80;99.90
16263;DHT22;8239;48.594;8.598;2023-03-14T11:10:14;9.60;99.90
16263;DHT22;8239;48.594;8.598;2023-03-14T11:12:53;9.50;99.90
16263;DHT22;8239;48.594;8.598;2023-03-14T11:15:27;9.60;99.90
16263;DHT22;8239;48.594;8.598;2023-03-14T11:18:16;9.70;99.90
16263;DHT22;8239;48.594;8.598;2023-03-14T11:20:52;10.10;99.90
16263;DHT22;8239;48.594;8.598;2023-03-14T11:23:22;10.70;99.90
16263;DHT22;8239;48.594;8.598;2023-03-14T11:25:56;11.10;99.90
16263;DHT22;8239;48.594;8.598;2023-03-14T11:28:32;11.50;99.90
16263;DHT22;8239;48.594;8.598;2023-03-14T11:31:05;11.60;99.90
16263;DHT22;8239;48.594;8.598;2023-03-14T11:33:37;11.30;99.90
16263;DHT22;8239;48.594;8.598;2023-03-14T11:36:07;10.80;99.90
16263;DHT22;8239;48.594;8.598;2023-03-14T11:38:38;10.40;99.90
16263;DHT22;8239;48.594;8.598;2023-03-14T11:41:14;10.00;99.90
16263;DHT22;8239;48.594;8.598;2023-03-14T11:43:47;9.80;99.90
16263;DHT22;8239;48.594;8.598;2023-03-14T11:46:17;9.70;99.90
16263;DHT22;8239;48.594;8.598;2023-03-14T11:48:55;10.00;99.90
16263;DHT22;8239;48.594;8.598;2023-03-14T11:51:25;11.30;99.90
16263;DHT22;8239;48.594;8.598;2023-03-14T11:54:00;12.30;99.90
16263;DHT22;8239;48.594;8.598;2023-03-14T11:56:33;12.80;99.90
16263;DHT22;8239;48.594;8.598;2023-03-14T11:59:04;12.90;99.90
16263;DHT22;8239;48.594;8.598;2023-03-14T12:01:54;13.00;99.90
16263;DHT22;8239;48.594;8.598;2023-03-14T12:04:36;13.20;99.90
16263;DHT22;8239;48.594;8.598;2023-03-14T12:07:12;13.60;99.90
16263;DHT22;8239;48.594;8.598;2023-03-14T12:09:41;13.50;99.90
16263;DHT22;8239;48.594;8.598;2023-03-14T12:12:14;13.40;99.90
16263;DHT22;8239;48.594;8.598;2023-03-14T12:14:53;13.60;96.60
16263;DHT22;8239;48.594;8.598;2023-03-14T12:17:22;14.20;99.90
16263;DHT22;8239;48.594;8.598;2023-03-14T12:20:02;15.00;99.90
16263;DHT22;8239;48.594;8.598;2023-03-14T12:22:33;15.50;95.30
16263;DHT22;8239;48.594;8.598;2023-03-14T12:25:05;15.70;97.90
16263;DHT22;8239;48.594;8.598;2023-03-14T12:28:15;16.20;97.60
16263;DHT22;8239;48.594;8.598;2023-03-14T12:30:44;16.50;94.50
16263;DHT22;8239;48.594;8.598;2023-03-14T12:33:27;17.10;96.50
16263;DHT22;8239;48.594;8.598;2023-03-14T12:35:59;17.40;91.40
16263;DHT22;8239;48.594;8.598;2023-03-14T12:38:32;16.80;91.50
16263;DHT22;8239;48.594;8.598;2023-03-14T12:41:14;15.80;85.80
16263;DHT22;8239;48.594;8.598;2023-03-14T12:43:43;14.50;91.20
16263;DHT22;8239;48.594;8.598;2023-03-14T12:46:23;13.50;92.60
16263;DHT22;8239;48.594;8.598;2023-03-14T12:48:55;12.60;92.20
16263;DHT22;8239;48.594;8.598;2023-03-14T12:51:29;11.80;92.10
16263;DHT22;8239;48.594;8.598;2023-03-14T12:54:22;11.30;92.70
16263;DHT22;8239;48.594;8.598;2023-03-14T12:57:26;11.10;99.90
16263;DHT22;8239;48.594;8.598;2023-03-14T12:59:57;11.20;99.90
16263;DHT22;8239;48.594;8.598;2023-03-14T13:02:27;11.20;99.40
16263;DHT22;8239;48.594;8.598;2023-03-14T13:05:02;11.20;98.50
16263;DHT22;8239;48.594;8.598;2023-03-14T13:07:36;10.80;96.20
16263;DHT22;8239;48.594;8.598;2023-03-14T13:10:25;10.20;95.40
16263;DHT22;8239;48.594;8.598;2023-03-14T13:12:55;10.00;96.90
16263;DHT22;8239;48.594;8.598;2023-03-14T13:15:28;10.30;98.20
16263;DHT22;8239;48.594;8.598;2023-03-14T13:18:01;10.50;99.90
16263;DHT22;8239;48.594;8.598;2023-03-14T13:20:31;10.30;99.90
16263;DHT22;8239;48.594;8.598;2023-03-14T13:22:59;9.90;97.10
16263;DHT22;8239;48.594;8.598;2023-03-14T13:25:30;9.30;98.90
16263;DHT22;8239;48.594;8.598;2023-03-14T13:27:58;8.80;98.80
16263;DHT22;8239;48.594;8.598;2023-03-14T13:30:28;8.30;98.00
16263;DHT22;8239;48.594;8.598;2023-03-14T13:33:04;7.90;99.90
16263;DHT22;8239;48.594;8.598;2023-03-14T13:35:39;7.60;99.90
16263;DHT22;8239;48.594;8.598;2023-03-14T13:38:16;7.90;99.90
16263;DHT22;8239;48.594;8.598;2023-03-14T13:40:45;8.20;99.90
16263;DHT22;8239;48.594;8.598;2023-03-14T13:43:16;8.30;99.90
16263;DHT22;8239;48.594;8.598;2023-03-14T13:45:53;8.30;99.90
16263;DHT22;8239;48.594;8.598;2023-03-14T13:48:24;8.30;99.90
16263;DHT22;8239;48.594;8.598;2023-03-14T13:50:55;8.30;99.90
16263;DHT22;8239;48.594;8.598;2023-03-14T13:53:23;8.30;99.90
16263;DHT22;8239;48.594;8.598;2023-03-14T13:55:50;8.50;99.90
16263;DHT22;8239;48.594;8.598;2023-03-14T13:58:26;8.80;99.90
16263;DHT22;8239;48.594;8.598;2023-03-14T14:01:00;9.20;99.90
16263;DHT22;8239;48.594;8.598;2023-03-14T14:03:31;9.20;99.50
16263;DHT22;8239;48.594;8.598;2023-03-14T14:05:58;8.90;99.90
16263;DHT22;8239;48.594;8.598;2023-03-14T14:08:26;8.90;99.90
16263;DHT22;8239;48.594;8.598;2023-03-14T14:10:57;9.00;99.90
16263;DHT22;8239;48.594;8.598;2023-03-14T14:13:26;8.70;97.80
16263;DHT22;8239;48.594;8.598;2023-03-14T14:15:56;8.30;99.90
16263;DHT22;8239;48.594;8.598;2023-03-14T14:18:27;8.10;98.80
16263;DHT22;8239;48.594;8.598;2023-03-14T14:20:55;8.00;99.80
16263;DHT22;8239;48.594;8.598;2023-03-14T14:23:25;8.00;99.90
16263;DHT22;8239;48.594;8.598;2023-03-14T14:25:55;8.00;99.90
16263;DHT22;8239;48.594;8.598;2023-03-14T14:28:25;8.10;99.90
16263;DHT22;8239;48.594;8.598;2023-03-14T14:31:03;8.30;99.90
16263;DHT22;8239;48.594;8.598;2023-03-14T14:33:38;8.60;98.20
16263;DHT22;8239;48.594;8.598;2023-03-14T14:36:14;8.60;96.90
16263;DHT22;8239;48.594;8.598;2023-03-14T14:38:41;8.40;96.80
16263;DHT22;8239;48.594;8.598;2023-03-14T14:41:11;8.10;96.30
16263;DHT22;8239;48.594;8.598;2023-03-14T14:43:39;7.90;99.90
16263;DHT22;8239;48.594;8.598;2023-03-14T14:46:09;7.80;99.90
16263;DHT22;8239;48.594;8.598;2023-03-14T14:48:37;7.80;99.90
16263;DHT22;8239;48.594;8.598;2023-03-14T14:51:06;7.80;99.90
16263;DHT22;8239;48.594;8.598;2023-03-14T14:53:36;7.70;99.90
16263;DHT22;8239;48.594;8.598;2023-03-14T14:56:07;7.50;99.90
16263;DHT22;8239;48.594;8.598;2023-03-14T14:58:36;7.50;99.90
16263;DHT22;8239;48.594;8.598;2023-03-14T15:01:11;8.30;99.90
16263;DHT22;8239;48.594;8.598;2023-03-14T15:03:42;9.10;99.90
16263;DHT22;8239;48.594;8.598;2023-03-14T15:06:12;9.30;98.30
16263;DHT22;8239;48.594;8.598;2023-03-14T15:08:39;9.20;97.50
16263;DHT22;8239;48.594;8.598;2023-03-14T15:11:09;9.00;99.90
16263;DHT22;8239;48.594;8.598;2023-03-14T15:13:42;8.80;96.70
16263;DHT22;8239;48.594;8.598;2023-03-14T15:16:11;9.00;99.90
16263;DHT22;8239;48.594;8.598;2023-03-14T15:18:39;9.70;99.00
16263;DHT22;8239;48.594;8.598;2023-03-14T15:21:09;10.80;99.90
16263;DHT22;8239;48.594;8.598;2023-03-14T15:23:36;11.60;95.50
16263;DHT22;8239;48.594;8.598;2023-03-14T15:26:08;11.80;91.40
16263;DHT22;8239;48.594;8.598;2023-03-14T15:28:38;12.40;98.20
16263;DHT22;8239;48.594;8.598;2023-03-14T15:31:08;12.70;93.30
16263;DHT22;8239;48.594;8.598;2023-03-14T15:33:40;12.10;81.70
16263;DHT22;8239;48.594;8.598;2023-03-14T15:36:18;11.30;78.30
16263;DHT22;8239;48.594;8.598;2023-03-14T15:38:45;10.40;85.60
16263;DHT22;8239;48.594;8.598;2023-03-14T15:41:12;9.70;93.60
16263;DHT22;8239;48.594;8.598;2023-03-14T15:43:41;9.10;94.40
16263;DHT22;8239;48.594;8.598;2023-03-14T15:46:08;8.60;95.30
16263;DHT22;8239;48.594;8.598;2023-03-14T15:48:35;8.20;95.90
16263;DHT22;8239;48.594;8.598;2023-03-14T15:51:04;8.00;98.70
16263;DHT22;8239;48.594;8.598;2023-03-14T15:53:31;7.80;99.90
16263;DHT22;8239;48.594;8.598;2023-03-14T15:55:58;7.80;99.90
16263;DHT22;8239;48.594;8.598;2023-03-14T15:58:25;7.90;99.90
16263;DHT22;8239;48.594;8.598;2023-03-14T16:00:52;8.00;99.70
16263;DHT22;8239;48.594;8.598;2023-03-14T16:03:20;8.00;99.00
16263;DHT22;8239;48.594;8.598;2023-03-14T16:05:47;7.80;99.90
16263;DHT22;8239;48.594;8.598;2023-03-14T16:08:15;7.60;99.90
16263;DHT22;8239;48.594;8.598;2023-03-14T16:10:43;7.30;99.50
16263;DHT22;8239;48.594;8.598;2023-03-14T16:13:10;7.10;99.90
16263;DHT22;8239;48.594;8.598;2023-03-14T16:15:37;6.90;99.90